Time;durP1;ratioP1;P1;durP2;ratioP2;P2;SDS_P1;SDS_P2;PMS_P1;PMS_P2;Temp;Humidity;BMP_temperature;BMP_pressure;BME280_temperature;BME280_humidity;BME280_pressure;Samples;Min_cycle;Max_cycle;Signal;HPM_P1;HPM_P2
2021/07/03 00:01:34;;;;;;;16.90;11.30;;;15.30;99.90;;;;;;5078872;28;20412;-83
2021/07/03 00:04:00;;;;;;;18.63;11.17;;;15.60;99.90;;;;;;5097116;28;20261;-84
2021/07/03 00:06:26;;;;;;;17.20;12.97;;;15.70;99.90;;;;;;5083740;28;20167;-84
2021/07/03 00:08:52;;;;;;;14.60;10.60;;;15.70;99.90;;;;;;5101825;28;20439;-84
2021/07/03 00:11:18;;;;;;;12.93;10.97;;;15.80;99.90;;;;;;5101896;28;20212;-83
2021/07/03 00:13:43;;;;;;;12.80;10.73;;;15.80;99.90;;;;;;5104929;28;20194;-81
2021/07/03 00:16:09;;;;;;;14.23;10.77;;;15.60;99.90;;;;;;5117008;28;20166;-82
2021/07/03 00:18:36;;;;;;;17.27;13.90;;;15.50;99.90;;;;;;5116672;28;20169;-81
2021/07/03 00:21:02;;;;;;;14.00;10.27;;;15.50;99.90;;;;;;5111458;28;20186;-83
2021/07/03 00:23:28;;;;;;;18.33;10.10;;;15.40;99.90;;;;;;5114918;28;20468;-82
2021/07/03 00:25:54;;;;;;;13.53;10.50;;;15.40;99.90;;;;;;5118723;28;20460;-81
2021/07/03 00:28:20;;;;;;;23.23;11.60;;;15.50;99.90;;;;;;5119049;28;20457;-81
2021/07/03 00:30:46;;;;;;;12.60;11.03;;;15.60;99.90;;;;;;5101745;28;20155;-80
2021/07/03 00:33:11;;;;;;;14.10;12.20;;;15.50;99.90;;;;;;5103278;28;20225;-83
2021/07/03 00:35:37;;;;;;;12.63;11.30;;;15.50;99.90;;;;;;5082584;28;20171;-84
2021/07/03 00:38:03;;;;;;;12.83;10.90;;;15.30;99.90;;;;;;5082312;28;20162;-84
2021/07/03 00:40:29;;;;;;;12.00;10.77;;;15.20;99.90;;;;;;5099738;28;20163;-83
2021/07/03 00:42:56;;;;;;;18.70;10.93;;;15.00;99.90;;;;;;5081875;28;20457;-83
2021/07/03 00:45:22;;;;;;;14.27;11.17;;;14.90;99.90;;;;;;5081741;28;20173;-83
2021/07/03 00:47:48;;;;;;;12.30;11.07;;;14.80;99.90;;;;;;5100049;28;20877;-83
2021/07/03 00:50:14;;;;;;;13.40;10.23;;;14.90;99.90;;;;;;5082146;28;20435;-83
2021/07/03 00:52:42;;;;;;;13.73;12.20;;;14.80;99.90;;;;;;5100104;28;20224;-83
2021/07/03 00:55:08;;;;;;;15.43;11.27;;;14.80;99.90;;;;;;5100078;28;20432;-83
2021/07/03 00:57:38;;;;;;;19.97;11.80;;;14.70;99.90;;;;;;5099780;28;20415;-84
2021/07/03 01:00:06;;;;;;;13.40;11.53;;;14.60;99.90;;;;;;5081583;28;20385;-83
2021/07/03 01:02:32;;;;;;;14.80;10.37;;;14.50;99.90;;;;;;5100043;28;20389;-83
2021/07/03 01:04:58;;;;;;;16.20;12.13;;;14.50;99.90;;;;;;5099550;28;20393;-84
2021/07/03 01:07:24;;;;;;;13.77;11.63;;;14.30;99.90;;;;;;5099647;28;20169;-83
2021/07/03 01:09:50;;;;;;;16.17;11.87;;;14.20;99.90;;;;;;5099812;28;20812;-83
2021/07/03 01:12:16;;;;;;;17.40;12.90;;;14.30;99.90;;;;;;5100347;28;20425;-83
2021/07/03 01:14:46;;;;;;;15.20;11.70;;;14.40;99.90;;;;;;5099596;28;20503;-83
2021/07/03 01:17:13;;;;;;;17.13;12.57;;;14.40;99.90;;;;;;5099375;28;20757;-83
2021/07/03 01:19:39;;;;;;;19.50;12.47;;;14.30;99.90;;;;;;5099214;28;20384;-84
2021/07/03 01:22:06;;;;;;;15.63;12.80;;;14.50;99.90;;;;;;5099260;28;20466;-84
2021/07/03 01:24:33;;;;;;;17.90;12.10;;;14.60;99.90;;;;;;5064762;28;20604;-84
2021/07/03 01:26:58;;;;;;;14.50;11.87;;;14.70;99.90;;;;;;5098785;28;20492;-84
2021/07/03 01:29:26;;;;;;;17.20;12.37;;;14.80;99.90;;;;;;5099097;28;20389;-84
2021/07/03 01:31:54;;;;;;;19.57;11.63;;;14.80;99.90;;;;;;5099284;28;20245;-84
2021/07/03 01:34:21;;;;;;;13.90;10.47;;;14.80;99.90;;;;;;5099266;28;20441;-83
2021/07/03 01:36:47;;;;;;;20.57;13.23;;;14.70;99.90;;;;;;5099052;28;20454;-83
2021/07/03 01:39:14;;;;;;;15.40;12.43;;;14.80;99.90;;;;;;5099873;28;20392;-83
2021/07/03 01:41:40;;;;;;;17.50;11.17;;;14.60;99.90;;;;;;5081705;28;20228;-83
2021/07/03 01:44:06;;;;;;;12.00;10.80;;;14.60;99.90;;;;;;5099990;28;20788;-83
2021/07/03 01:46:32;;;;;;;20.20;12.40;;;14.60;99.90;;;;;;5104832;28;20488;-83
2021/07/03 01:49:00;;;;;;;17.40;11.50;;;14.60;99.90;;;;;;5105511;28;20159;-83
2021/07/03 01:51:26;;;;;;;12.50;11.30;;;14.60;99.90;;;;;;5105138;28;20407;-83
2021/07/03 01:53:52;;;;;;;11.60;10.20;;;14.50;99.90;;;;;;5103543;28;20441;-83
2021/07/03 01:56:18;;;;;;;13.73;10.97;;;14.60;99.90;;;;;;5099475;28;20907;-83
2021/07/03 01:58:44;;;;;;;14.17;11.60;;;14.60;99.90;;;;;;5098950;28;20170;-83
2021/07/03 02:01:10;;;;;;;14.90;10.23;;;14.50;99.90;;;;;;5099159;28;20151;-83
2021/07/03 02:03:36;;;;;;;15.40;10.40;;;14.40;99.90;;;;;;5099333;28;20166;-83
2021/07/03 02:06:04;;;;;;;12.17;10.07;;;14.30;99.90;;;;;;5099400;28;20393;-83
2021/07/03 02:08:31;;;;;;;12.80;11.00;;;14.20;99.90;;;;;;5099773;28;20190;-84
2021/07/03 02:10:57;;;;;;;12.73;10.20;;;14.10;99.90;;;;;;5099256;28;20748;-83
2021/07/03 02:13:23;;;;;;;15.17;10.53;;;14.00;99.90;;;;;;5099164;28;20490;-83
2021/07/03 02:15:49;;;;;;;14.70;11.63;;;14.00;99.90;;;;;;5112415;28;20393;-80
2021/07/03 02:18:15;;;;;;;11.60;8.87;;;14.00;99.90;;;;;;5116395;28;20147;-80
2021/07/03 02:20:41;;;;;;;12.87;10.33;;;14.10;99.90;;;;;;5099321;28;20423;-81
2021/07/03 02:23:07;;;;;;;14.27;11.80;;;14.30;99.90;;;;;;5117329;28;20189;-81
2021/07/03 02:25:34;;;;;;;12.03;10.77;;;14.40;99.90;;;;;;5116457;28;20836;-81
2021/07/03 02:28:00;;;;;;;15.47;11.77;;;14.30;99.90;;;;;;5117121;28;20170;-81
2021/07/03 02:30:26;;;;;;;12.83;11.30;;;14.30;99.90;;;;;;5100570;28;20410;-84
2021/07/03 02:32:53;;;;;;;9.27;8.37;;;14.30;99.90;;;;;;5080764;28;20480;-83
2021/07/03 02:35:19;;;;;;;12.73;10.20;;;14.30;99.90;;;;;;5100058;28;20389;-82
2021/07/03 02:37:46;;;;;;;17.83;10.50;;;14.40;99.90;;;;;;5080289;28;20439;-83
2021/07/03 02:40:15;;;;;;;11.90;9.57;;;14.50;99.90;;;;;;5097905;28;20389;-83
2021/07/03 02:42:41;;;;;;;11.43;10.27;;;14.30;99.90;;;;;;5083552;28;20445;-84
2021/07/03 02:45:10;;;;;;;12.63;9.07;;;14.30;99.90;;;;;;5077403;28;20447;-83
2021/07/03 02:47:37;;;;;;;10.40;9.40;;;14.40;99.90;;;;;;5060376;28;20487;-83
2021/07/03 02:50:05;;;;;;;11.90;10.70;;;14.30;99.90;;;;;;5077504;28;20444;-84
2021/07/03 02:52:31;;;;;;;16.47;10.17;;;14.20;99.90;;;;;;5076953;28;20894;-84
2021/07/03 02:54:57;;;;;;;11.27;10.07;;;14.10;99.90;;;;;;5059404;28;20541;-84
2021/07/03 02:57:23;;;;;;;11.90;10.10;;;14.00;99.90;;;;;;5077725;28;20163;-84
2021/07/03 02:59:48;;;;;;;13.60;9.20;;;13.90;99.90;;;;;;5059719;28;20170;-84
2021/07/03 03:02:14;;;;;;;11.73;9.23;;;14.00;99.90;;;;;;5059876;28;20233;-84
2021/07/03 03:04:40;;;;;;;11.03;9.67;;;13.90;99.90;;;;;;5077735;28;20170;-83
2021/07/03 03:07:06;;;;;;;12.60;9.80;;;13.90;99.90;;;;;;5077723;28;20652;-84
2021/07/03 03:09:32;;;;;;;12.80;9.63;;;14.00;99.90;;;;;;5077465;28;20191;-83
2021/07/03 03:11:58;;;;;;;12.77;10.23;;;13.90;99.90;;;;;;5059480;28;20462;-84
2021/07/03 03:14:24;;;;;;;17.23;10.93;;;13.90;99.90;;;;;;5059440;28;20441;-83
2021/07/03 03:16:53;;;;;;;11.87;9.80;;;13.90;99.90;;;;;;5077078;28;20156;-84
2021/07/03 03:19:20;;;;;;;11.93;10.73;;;14.00;99.90;;;;;;5077305;28;20627;-83
2021/07/03 03:21:46;;;;;;;17.10;11.70;;;14.00;99.90;;;;;;5077525;28;20493;-83
2021/07/03 03:24:12;;;;;;;12.60;11.20;;;14.00;99.90;;;;;;5077168;28;20456;-83
2021/07/03 03:26:38;;;;;;;14.33;10.97;;;14.10;99.90;;;;;;5077658;28;20163;-84
2021/07/03 03:29:04;;;;;;;15.47;11.30;;;14.00;99.90;;;;;;5077420;28;20546;-84
2021/07/03 03:31:30;;;;;;;14.20;11.73;;;14.00;99.90;;;;;;5077075;28;20393;-84
2021/07/03 03:33:59;;;;;;;18.43;10.83;;;14.00;99.90;;;;;;5077126;28;20882;-83
2021/07/03 03:36:24;;;;;;;16.43;12.77;;;14.10;99.90;;;;;;5059023;28;20381;-84
2021/07/03 03:38:50;;;;;;;15.43;11.73;;;14.10;99.90;;;;;;5058770;28;20428;-83
2021/07/03 03:41:16;;;;;;;14.87;10.13;;;14.10;99.90;;;;;;5080944;28;20170;-84
2021/07/03 03:43:43;;;;;;;12.33;10.40;;;14.30;99.90;;;;;;5081058;28;20172;-84
2021/07/03 03:46:10;;;;;;;15.03;11.03;;;14.60;99.90;;;;;;5081106;28;20398;-83
2021/07/03 03:48:36;;;;;;;19.97;12.03;;;14.70;99.90;;;;;;5080579;28;20455;-84
2021/07/03 03:51:02;;;;;;;13.10;10.53;;;14.80;99.90;;;;;;5063398;28;20860;-83
2021/07/03 03:53:28;;;;;;;11.60;10.40;;;14.90;99.90;;;;;;5083728;28;20202;-81
2021/07/03 03:55:54;;;;;;;21.50;11.57;;;15.10;99.90;;;;;;5098246;28;20164;-81
2021/07/03 03:58:19;;;;;;;15.80;11.53;;;15.10;99.90;;;;;;5092440;28;20160;-84
2021/07/03 04:00:45;;;;;;;11.97;10.60;;;15.20;99.90;;;;;;5081476;28;20159;-84
2021/07/03 04:03:11;;;;;;;11.80;10.70;;;15.40;99.90;;;;;;5080837;28;20611;-83
2021/07/03 04:05:37;;;;;;;12.30;10.43;;;15.40;99.90;;;;;;5081272;28;20227;-84
2021/07/03 04:08:03;;;;;;;11.30;10.23;;;15.50;99.90;;;;;;5062943;28;20195;-84
2021/07/03 04:10:29;;;;;;;19.03;11.20;;;15.60;99.90;;;;;;5081208;28;20163;-84
2021/07/03 04:12:55;;;;;;;14.73;10.90;;;15.60;99.90;;;;;;5080914;28;20450;-84
2021/07/03 04:15:21;;;;;;;11.87;10.17;;;15.70;99.90;;;;;;5082551;28;20182;-84
2021/07/03 04:17:46;;;;;;;11.47;10.20;;;15.70;99.90;;;;;;5082240;28;20238;-84
2021/07/03 04:20:14;;;;;;;14.03;11.03;;;15.70;99.90;;;;;;5081524;28;20293;-83
2021/07/03 04:22:40;;;;;;;13.40;10.03;;;15.70;99.90;;;;;;5088161;28;20167;-84
2021/07/03 04:25:09;;;;;;;13.23;11.50;;;15.60;99.90;;;;;;5082981;28;20402;-83
2021/07/03 04:27:36;;;;;;;14.80;11.70;;;15.60;99.90;;;;;;5099034;28;20465;-80
2021/07/03 04:30:04;;;;;;;12.73;10.00;;;15.50;99.90;;;;;;5099547;28;20424;-83
2021/07/03 04:32:30;;;;;;;11.40;9.70;;;15.60;99.90;;;;;;5098953;28;20374;-81
2021/07/03 04:34:56;;;;;;;23.87;10.90;;;15.60;99.90;;;;;;5077019;28;20457;-83
2021/07/03 04:37:22;;;;;;;16.93;9.53;;;15.60;99.90;;;;;;5080049;28;20167;-83
2021/07/03 04:39:48;;;;;;;15.43;12.43;;;15.70;99.90;;;;;;5080557;28;20195;-84
2021/07/03 04:42:13;;;;;;;11.00;9.30;;;15.80;99.90;;;;;;5079703;28;20231;-83
2021/07/03 04:44:39;;;;;;;19.80;11.63;;;15.90;99.90;;;;;;5079826;28;20394;-83
2021/07/03 04:47:05;;;;;;;11.97;9.70;;;15.90;99.90;;;;;;5080574;28;20167;-84
2021/07/03 04:49:32;;;;;;;11.80;10.47;;;15.80;99.90;;;;;;5080804;28;20266;-83
2021/07/03 04:51:59;;;;;;;17.83;11.50;;;15.80;99.90;;;;;;5079609;28;20556;-82
2021/07/03 04:54:25;;;;;;;16.53;10.23;;;15.80;99.90;;;;;;5080586;28;20736;-83
2021/07/03 04:56:51;;;;;;;12.43;10.10;;;16.00;99.90;;;;;;5079957;28;20394;-83
2021/07/03 04:59:17;;;;;;;12.77;10.90;;;16.10;99.90;;;;;;5080884;28;20394;-83
2021/07/03 05:01:43;;;;;;;12.33;11.10;;;16.30;99.90;;;;;;5063760;28;20389;-83
2021/07/03 05:04:08;;;;;;;17.27;10.70;;;16.40;99.90;;;;;;5079950;28;20207;-83
2021/07/03 05:06:34;;;;;;;13.00;9.67;;;16.60;99.90;;;;;;5080805;28;20191;-83
2021/07/03 05:09:00;;;;;;;15.53;10.50;;;16.70;99.90;;;;;;5080213;28;20191;-83
2021/07/03 05:11:26;;;;;;;17.33;10.10;;;16.70;99.90;;;;;;5044882;28;20257;-84
2021/07/03 05:13:52;;;;;;;14.73;9.83;;;16.60;99.90;;;;;;5080304;28;20578;-84
2021/07/03 05:16:17;;;;;;;11.13;9.70;;;16.70;99.90;;;;;;5088762;28;20164;-81
2021/07/03 05:18:43;;;;;;;10.17;8.40;;;16.70;99.90;;;;;;5088951;28;20215;-83
2021/07/03 05:21:09;;;;;;;13.17;8.80;;;16.70;99.90;;;;;;5080712;28;20159;-84
2021/07/03 05:23:35;;;;;;;10.93;9.73;;;16.60;99.90;;;;;;5063320;28;20187;-83
2021/07/03 05:26:00;;;;;;;19.03;9.60;;;16.50;99.90;;;;;;5080228;28;20167;-84
2021/07/03 05:28:26;;;;;;;15.73;10.77;;;16.80;99.90;;;;;;5080183;28;20167;-83
2021/07/03 05:30:53;;;;;;;13.87;10.30;;;16.90;99.90;;;;;;5080047;28;20191;-84
2021/07/03 05:33:19;;;;;;;10.27;9.20;;;16.80;99.90;;;;;;5080244;28;20543;-84
2021/07/03 05:35:45;;;;;;;22.47;11.03;;;16.80;99.90;;;;;;5079688;28;20396;-84
2021/07/03 05:38:11;;;;;;;12.43;11.13;;;16.60;99.90;;;;;;5080996;28;20397;-84
2021/07/03 05:40:37;;;;;;;10.00;9.10;;;16.80;99.90;;;;;;5080885;28;20155;-83
2021/07/03 05:43:03;;;;;;;10.53;9.53;;;16.40;99.90;;;;;;5087958;28;20457;-84
2021/07/03 05:45:28;;;;;;;15.83;10.10;;;16.30;99.90;;;;;;5081553;28;20480;-83
2021/07/03 05:47:54;;;;;;;9.93;8.90;;;16.30;99.90;;;;;;5061028;28;20163;-83
2021/07/03 05:50:22;;;;;;;16.20;10.87;;;16.50;99.90;;;;;;5078452;28;20164;-83
2021/07/03 05:52:49;;;;;;;13.90;9.87;;;16.60;99.90;;;;;;5078761;28;20174;-83
2021/07/03 05:55:14;;;;;;;11.80;10.60;;;16.50;99.90;;;;;;5078593;28;20441;-83
2021/07/03 05:57:41;;;;;;;17.77;9.97;;;16.60;99.90;;;;;;5078144;28;20481;-83
2021/07/03 06:00:08;;;;;;;10.93;9.93;;;16.40;99.90;;;;;;5078863;28;20219;-83
2021/07/03 06:02:34;;;;;;;9.47;8.57;;;16.60;99.90;;;;;;5078362;28;20439;-83
2021/07/03 06:05:00;;;;;;;15.80;10.27;;;16.50;99.90;;;;;;5060340;28;20393;-83
2021/07/03 06:07:26;;;;;;;14.97;10.23;;;16.50;99.90;;;;;;5077515;28;20163;-83
2021/07/03 06:09:52;;;;;;;11.68;10.00;;;16.60;99.90;;;;;;5059344;28;20414;-83
2021/07/03 06:12:18;;;;;;;16.60;10.60;;;16.70;99.90;;;;;;5077738;28;20175;-83
2021/07/03 06:14:45;;;;;;;11.03;9.93;;;16.90;99.90;;;;;;5077278;28;20444;-83
2021/07/03 06:17:13;;;;;;;11.20;8.50;;;16.70;99.90;;;;;;5077823;28;20452;-83
2021/07/03 06:19:41;;;;;;;11.83;10.23;;;16.80;99.90;;;;;;5077365;28;20701;-84
2021/07/03 06:22:09;;;;;;;15.90;9.20;;;16.70;99.90;;;;;;5075982;28;20547;-84
2021/07/03 06:24:35;;;;;;;14.67;9.80;;;16.60;99.90;;;;;;5077537;28;20394;-84
2021/07/03 06:27:01;;;;;;;12.10;10.50;;;16.70;99.90;;;;;;5077402;28;20880;-84
2021/07/03 06:29:27;;;;;;;11.20;9.60;;;16.70;99.90;;;;;;5077335;28;20167;-84
2021/07/03 06:31:53;;;;;;;12.10;10.30;;;16.70;99.90;;;;;;5076608;28;20932;-83
2021/07/03 06:34:18;;;;;;;14.87;10.70;;;16.80;99.90;;;;;;5077601;28;20190;-84
2021/07/03 06:36:44;;;;;;;15.97;11.20;;;16.80;99.90;;;;;;5077660;28;20195;-83
2021/07/03 06:39:10;;;;;;;12.90;9.40;;;17.10;99.90;;;;;;5077677;28;20159;-83
2021/07/03 06:41:36;;;;;;;12.97;10.37;;;17.10;99.90;;;;;;5077403;28;20222;-83
2021/07/03 06:44:01;;;;;;;20.13;9.87;;;16.80;99.90;;;;;;5077736;28;20172;-83
2021/07/03 06:46:28;;;;;;;11.73;9.20;;;16.90;99.90;;;;;;5062549;28;20199;-84
2021/07/03 06:48:54;;;;;;;13.53;10.57;;;17.00;99.90;;;;;;5078300;28;20163;-84
2021/07/03 06:51:20;;;;;;;12.03;10.70;;;17.30;99.90;;;;;;5077260;28;20405;-84
2021/07/03 06:53:46;;;;;;;16.63;9.77;;;17.60;99.90;;;;;;5077705;28;20285;-84
2021/07/03 06:56:12;;;;;;;11.20;7.90;;;17.40;99.90;;;;;;5077511;28;20155;-84
2021/07/03 06:58:38;;;;;;;11.80;9.87;;;17.30;99.90;;;;;;5076768;28;20156;-84
2021/07/03 07:01:04;;;;;;;11.60;10.20;;;17.50;99.90;;;;;;5077215;28;20160;-84
2021/07/03 07:03:29;;;;;;;11.47;8.97;;;17.80;99.90;;;;;;5077548;28;20402;-83
2021/07/03 07:05:56;;;;;;;11.67;9.43;;;18.10;99.90;;;;;;5076686;28;20555;-84
2021/07/03 07:08:22;;;;;;;11.27;10.17;;;18.10;99.90;;;;;;5076974;28;20199;-84
2021/07/03 07:10:51;;;;;;;12.80;8.90;;;18.10;99.90;;;;;;5077363;28;20740;-82
2021/07/03 07:13:16;;;;;;;11.93;9.40;;;17.90;99.90;;;;;;5061166;28;20164;-83
2021/07/03 07:15:42;;;;;;;10.97;9.73;;;18.00;99.90;;;;;;5076595;28;20388;-83
2021/07/03 07:18:08;;;;;;;13.10;9.67;;;18.00;99.90;;;;;;5077203;28;20160;-84
2021/07/03 07:20:34;;;;;;;16.43;9.00;;;17.80;99.90;;;;;;5078632;28;20186;-83
2021/07/03 07:23:00;;;;;;;11.57;10.33;;;18.00;99.90;;;;;;5079907;28;20223;-84
2021/07/03 07:25:25;;;;;;;12.33;9.43;;;18.30;99.90;;;;;;5080403;28;20538;-84
2021/07/03 07:27:51;;;;;;;10.40;9.30;;;18.60;99.90;;;;;;5080289;28;20170;-84
2021/07/03 07:30:19;;;;;;;13.10;10.07;;;18.80;99.90;;;;;;5078024;28;20187;-84
2021/07/03 07:32:46;;;;;;;12.73;10.27;;;18.60;99.90;;;;;;5077879;28;20461;-83
2021/07/03 07:35:13;;;;;;;14.10;10.03;;;18.80;99.90;;;;;;5090997;28;20488;-82
2021/07/03 07:37:39;;;;;;;11.73;9.77;;;19.00;99.90;;;;;;5091311;28;20389;-84
2021/07/03 07:40:05;;;;;;;10.13;8.60;;;19.10;99.90;;;;;;5077639;28;20444;-84
2021/07/03 07:42:31;;;;;;;10.60;8.73;;;19.00;99.90;;;;;;5077300;28;20991;-84
2021/07/03 07:44:57;;;;;;;12.67;9.30;;;18.90;99.90;;;;;;5077623;28;20389;-83
2021/07/03 07:47:23;;;;;;;10.90;9.53;;;19.10;99.90;;;;;;5059547;28;20514;-85
2021/07/03 07:49:49;;;;;;;13.47;10.40;;;19.20;99.90;;;;;;5077354;28;20175;-84
2021/07/03 07:52:15;;;;;;;11.77;8.67;;;19.20;99.90;;;;;;5058796;28;20386;-83
2021/07/03 07:54:40;;;;;;;10.73;8.67;;;19.40;99.90;;;;;;5076990;28;20445;-84
2021/07/03 07:57:06;;;;;;;10.17;8.37;;;19.40;99.90;;;;;;5076864;28;20209;-84
2021/07/03 07:59:32;;;;;;;12.20;9.13;;;19.40;99.90;;;;;;5059259;28;20156;-84
2021/07/03 08:01:58;;;;;;;11.10;8.47;;;19.50;99.90;;;;;;5058514;28;20451;-84
2021/07/03 08:04:24;;;;;;;11.67;9.53;;;19.60;99.90;;;;;;5077370;28;20164;-84
2021/07/03 08:06:50;;;;;;;11.70;9.40;;;19.60;99.90;;;;;;5076711;28;20171;-84
2021/07/03 08:09:16;;;;;;;11.80;9.70;;;19.50;99.90;;;;;;5077322;28;20486;-83
2021/07/03 08:11:42;;;;;;;11.77;8.73;;;19.40;99.90;;;;;;5076985;28;20488;-83
2021/07/03 08:14:08;;;;;;;11.87;9.67;;;19.60;99.90;;;;;;5076698;28;20186;-84
2021/07/03 08:16:34;;;;;;;10.00;8.60;;;19.90;99.90;;;;;;5076558;28;20390;-83
2021/07/03 08:18:59;;;;;;;12.90;9.33;;;20.10;99.90;;;;;;5076818;28;20215;-83
2021/07/03 08:21:26;;;;;;;11.67;9.03;;;20.30;99.90;;;;;;5042360;28;20156;-84
2021/07/03 08:23:52;;;;;;;10.33;9.23;;;20.40;99.90;;;;;;5059246;28;20636;-83
2021/07/03 08:26:21;;;;;;;11.00;9.63;;;20.30;99.90;;;;;;5044432;28;20438;-84
2021/07/03 08:28:47;;;;;;;12.17;9.17;;;20.50;99.90;;;;;;5044766;28;20742;-83
2021/07/03 08:31:12;;;;;;;12.90;8.63;;;20.70;99.90;;;;;;5080087;28;20405;-84
2021/07/03 08:33:38;;;;;;;15.17;10.33;;;20.70;99.90;;;;;;5080910;28;20188;-84
2021/07/03 08:36:04;;;;;;;11.30;9.13;;;20.70;99.90;;;;;;5080007;28;20599;-83
2021/07/03 08:38:31;;;;;;;11.47;8.17;;;20.80;99.90;;;;;;5080044;28;20475;-84
2021/07/03 08:40:59;;;;;;;11.40;7.93;;;20.90;99.90;;;;;;5062952;28;20426;-84
2021/07/03 08:43:25;;;;;;;12.53;8.40;;;20.90;99.90;;;;;;5078962;28;20859;-84
2021/07/03 08:45:59;;;;;;;13.47;9.33;;;21.00;99.90;;;;;;5079474;28;20389;-84
2021/07/03 08:48:26;;;;;;;11.90;8.90;;;21.00;99.90;;;;;;5080089;28;20789;-84
2021/07/03 08:50:58;;;;;;;9.20;8.30;;;20.80;99.90;;;;;;5080391;28;20386;-84
2021/07/03 08:53:25;;;;;;;10.67;8.87;;;20.40;99.90;;;;;;5080534;28;20444;-84
2021/07/03 08:55:51;;;;;;;10.90;9.50;;;20.50;99.90;;;;;;5044834;28;20405;-83
2021/07/03 08:58:17;;;;;;;11.77;9.80;;;20.50;99.90;;;;;;5080221;28;20390;-84
2021/07/03 09:00:50;;;;;;;10.67;9.60;;;20.70;99.90;;;;;;5057615;28;20424;-84
2021/07/03 09:03:21;;;;;;;13.87;12.50;;;21.10;99.90;;;;;;5028139;28;20194;-83
2021/07/03 09:05:54;;;;;;;12.00;10.77;;;21.10;99.90;;;;;;5062805;28;20435;-83
2021/07/03 09:08:22;;;;;;;10.90;8.17;;;21.30;99.90;;;;;;5079707;28;20807;-83
2021/07/03 09:10:59;;;;;;;9.83;8.60;;;21.60;99.90;;;;;;5079382;28;20471;-84
2021/07/03 09:13:25;;;;;;;9.73;7.77;;;21.70;99.90;;;;;;5079625;28;20440;-84
2021/07/03 09:15:51;;;;;;;12.43;8.10;;;21.80;99.90;;;;;;5043829;28;20395;-83
2021/07/03 09:18:55;;;;;;;12.63;8.50;;;21.60;99.90;;;;;;5074739;28;20160;-83
2021/07/03 09:21:21;;;;;;;9.77;8.77;;;21.70;99.90;;;;;;5063827;28;20194;-84
2021/07/03 09:23:46;;;;;;;9.97;7.70;;;21.90;99.90;;;;;;5079656;28;20394;-84
2021/07/03 09:26:15;;;;;;;8.40;7.60;;;21.80;99.90;;;;;;5080079;28;20175;-83
2021/07/03 09:28:44;;;;;;;9.20;7.53;;;21.30;99.90;;;;;;5079643;28;20398;-84
2021/07/03 09:31:13;;;;;;;9.07;7.77;;;21.70;99.90;;;;;;5078654;28;20430;-84
2021/07/03 09:33:40;;;;;;;8.80;7.90;;;22.10;99.90;;;;;;5061279;28;20433;-83
2021/07/03 09:36:10;;;;;;;9.70;7.17;;;22.40;99.90;;;;;;5079208;28;20735;-84
2021/07/03 09:38:47;;;;;;;9.93;7.07;;;22.30;99.90;;;;;;5079027;28;20400;-84
2021/07/03 09:41:15;;;;;;;8.00;7.23;;;22.60;99.90;;;;;;5078711;28;20482;-84
2021/07/03 09:43:56;;;;;;;8.17;7.00;;;22.80;99.90;;;;;;5079293;28;20397;-84
2021/07/03 09:46:24;;;;;;;9.77;6.90;;;22.70;99.90;;;;;;5079321;28;20487;-84
2021/07/03 09:48:53;;;;;;;10.33;7.77;;;22.80;99.90;;;;;;5037238;28;20415;-84
2021/07/03 09:51:25;;;;;;;10.10;6.97;;;22.80;99.90;;;;;;5036979;28;20419;-82
2021/07/03 09:53:51;;;;;;;8.50;7.60;;;23.10;99.90;;;;;;5036851;28;20447;-84
2021/07/03 09:56:20;;;;;;;9.63;7.40;;;22.90;99.90;;;;;;4988870;28;20446;-84
2021/07/03 09:58:46;;;;;;;7.73;6.93;;;22.90;99.90;;;;;;5020013;28;20403;-83
2021/07/03 10:01:12;;;;;;;7.93;7.23;;;23.00;99.90;;;;;;5036383;28;20429;-84
2021/07/03 10:03:39;;;;;;;8.33;7.43;;;23.10;99.90;;;;;;5019752;28;20977;-83
2021/07/03 10:06:07;;;;;;;7.73;7.00;;;23.40;99.90;;;;;;5037075;28;20167;-84
2021/07/03 10:08:39;;;;;;;8.90;8.00;;;23.60;99.90;;;;;;5020665;28;20510;-84
2021/07/03 10:11:07;;;;;;;10.03;7.47;;;23.70;99.90;;;;;;5037023;28;20395;-83
2021/07/03 10:13:34;;;;;;;8.70;7.30;;;23.80;99.90;;;;;;5037723;28;20522;-83
2021/07/03 10:16:04;;;;;;;6.80;6.20;;;24.00;99.90;;;;;;5021568;28;20495;-85
2021/07/03 10:18:30;;;;;;;8.23;6.87;;;24.30;99.90;;;;;;5020558;28;20407;-85
2021/07/03 10:21:06;;;;;;;5.63;4.97;;;24.50;99.90;;;;;;5078525;28;20487;-85
2021/07/03 10:23:37;;;;;;;6.30;5.70;;;24.50;99.90;;;;;;5061025;28;20420;-84
2021/07/03 10:26:04;;;;;;;6.93;5.77;;;24.50;99.90;;;;;;5085097;28;20402;-84
2021/07/03 10:28:33;;;;;;;11.57;6.73;;;24.50;99.90;;;;;;5088479;28;20849;-82
2021/07/03 10:31:05;;;;;;;6.27;5.60;;;24.60;99.90;;;;;;5070864;28;20390;-84
2021/07/03 10:33:42;;;;;;;7.43;6.23;;;24.60;99.90;;;;;;5068560;28;20497;-83
2021/07/03 10:36:08;;;;;;;7.77;6.43;;;24.20;99.90;;;;;;5066217;28;20424;-84
2021/07/03 10:38:41;;;;;;;8.40;7.60;;;24.40;99.90;;;;;;5050275;28;20398;-84
2021/07/03 10:41:18;;;;;;;7.10;6.10;;;23.40;99.90;;;;;;5086356;28;20147;-84
2021/07/03 10:43:52;;;;;;;8.57;6.50;;;23.30;99.90;;;;;;5083572;28;20822;-83
2021/07/03 10:46:30;;;;;;;7.70;6.97;;;23.50;99.90;;;;;;5044765;28;20401;-84
2021/07/03 10:48:59;;;;;;;7.57;6.73;;;24.10;99.90;;;;;;5060954;28;20398;-84
2021/07/03 10:51:34;;;;;;;8.90;7.00;;;24.10;99.90;;;;;;5062485;28;20473;-82
2021/07/03 10:54:20;;;;;;;9.07;7.53;;;24.50;99.90;;;;;;5066210;28;20455;-84
2021/07/03 10:56:51;;;;;;;7.13;6.43;;;23.90;99.90;;;;;;5043777;28;20513;-83
2021/07/03 10:59:24;;;;;;;8.00;6.83;;;23.60;99.90;;;;;;5077704;28;20405;-84
2021/07/03 11:01:51;;;;;;;7.30;6.63;;;23.60;99.90;;;;;;5077791;28;20425;-83
2021/07/03 11:04:19;;;;;;;8.17;7.47;;;23.60;99.90;;;;;;5077796;28;20459;-84
2021/07/03 11:06:50;;;;;;;7.80;7.03;;;23.90;99.90;;;;;;5060689;28;20398;-84
2021/07/03 11:09:28;;;;;;;8.17;6.63;;;24.20;99.90;;;;;;5044232;28;20433;-84
2021/07/03 11:11:57;;;;;;;6.50;5.90;;;24.90;99.90;;;;;;5078591;28;20386;-84
2021/07/03 11:14:27;;;;;;;8.37;6.20;;;24.80;99.90;;;;;;5077910;28;20441;-84
2021/07/03 11:16:57;;;;;;;6.60;5.83;;;24.70;99.90;;;;;;5060268;28;20390;-84
2021/07/03 11:19:26;;;;;;;7.77;6.97;;;24.90;99.90;;;;;;5079181;28;20394;-84
2021/07/03 11:22:05;;;;;;;7.33;6.43;;;25.20;99.90;;;;;;5078544;28;20477;-84
2021/07/03 11:24:40;;;;;;;7.33;6.73;;;25.40;99.90;;;;;;5062400;28;20396;-84
2021/07/03 11:27:07;;;;;;;6.93;6.20;;;25.40;99.90;;;;;;5060581;28;20498;-82
2021/07/03 11:29:35;;;;;;;6.93;6.23;;;25.90;99.90;;;;;;5086651;28;20418;-83
2021/07/03 11:32:20;;;;;;;5.93;5.40;;;26.10;99.90;;;;;;5041777;28;20483;-84
2021/07/03 11:34:58;;;;;;;6.50;5.90;;;25.20;99.90;;;;;;5055713;28;20965;-84
2021/07/03 11:37:27;;;;;;;6.50;5.87;;;25.70;99.90;;;;;;5055069;28;20421;-84
2021/07/03 11:39:54;;;;;;;5.90;5.33;;;26.10;99.90;;;;;;5055793;28;20939;-84
2021/07/03 11:42:31;;;;;;;7.87;5.87;;;26.40;99.90;;;;;;5038578;28;20540;-84
2021/07/03 11:45:02;;;;;;;6.33;5.83;;;26.70;99.90;;;;;;5039073;28;20403;-84
2021/07/03 11:47:37;;;;;;;6.80;6.10;;;27.10;99.90;;;;;;5040067;28;20410;-85
2021/07/03 11:50:08;;;;;;;7.20;6.33;;;27.20;99.90;;;;;;5057460;28;20426;-84
2021/07/03 11:52:47;;;;;;;6.33;5.77;;;27.30;99.90;;;;;;5065105;28;20472;-82
2021/07/03 11:55:15;;;;;;;5.90;5.37;;;26.90;99.90;;;;;;5061547;28;20464;-84
2021/07/03 11:57:43;;;;;;;6.43;5.83;;;26.50;99.90;;;;;;5055095;28;20402;-84
2021/07/03 12:00:16;;;;;;;6.30;5.80;;;26.60;99.90;;;;;;5038447;28;20845;-84
2021/07/03 12:02:43;;;;;;;6.30;5.67;;;26.90;99.90;;;;;;5064337;28;20444;-84
2021/07/03 12:05:10;;;;;;;7.50;6.80;;;27.10;99.90;;;;;;5080480;28;20428;-85
2021/07/03 12:07:36;;;;;;;6.30;5.17;;;27.40;99.90;;;;;;5079467;28;20443;-84
2021/07/03 12:10:06;;;;;;;6.63;5.70;;;27.50;99.90;;;;;;5080263;28;20404;-84
2021/07/03 12:12:32;;;;;;;5.70;4.77;;;27.60;99.90;;;;;;5079779;28;20401;-84
2021/07/03 12:15:06;;;;;;;5.93;5.53;;;27.70;99.90;;;;;;5080172;28;20797;-84
2021/07/03 12:17:32;;;;;;;8.53;5.27;;;27.70;99.90;;;;;;5082093;28;20207;-84
2021/07/03 12:20:09;;;;;;;6.80;6.13;;;27.80;99.90;;;;;;5078506;28;20449;-84
2021/07/03 12:22:37;;;;;;;6.40;5.40;;;27.80;99.90;;;;;;5058617;28;20405;-82
2021/07/03 12:25:13;;;;;;;6.00;5.50;;;28.00;99.90;;;;;;5058784;28;20405;-84
2021/07/03 12:27:39;;;;;;;6.53;5.90;;;28.20;99.90;;;;;;5058424;28;20816;-84
2021/07/03 12:30:08;;;;;;;6.17;5.60;;;28.40;99.90;;;;;;5041969;28;20444;-83
2021/07/03 12:32:34;;;;;;;6.37;5.77;;;28.40;99.30;;;;;;5058190;28;20179;-84
2021/07/03 12:35:12;;;;;;;6.20;5.60;;;28.40;99.10;;;;;;5054852;28;20457;-84
2021/07/03 12:38:01;;;;;;;5.87;5.47;;;28.50;98.60;;;;;;5058974;28;20183;-84